Verviers, Belgium
Current Conditions -  °F | °C
As of 11:25 AM on Monday 26 Jan 2015 (Local Time) from EBLB Reporting Station
Overcast Overcast  
Wind Chill: 26°   Ceiling: 200
Heat Index: 32°   Visibility: 1.5mi
Dew Point: 32°   Wind: 6mph
Humidity: 100%   Direction: 220°SW
Pressure: 30.12"   Gusts: NA
Location:  50.59°N, 5.86°E
Report Text: EBLB 261025Z AUTO 22005KT 2400 OVC002/// 00/00 Q1020 AMB
Loading
Personal Weather Stations






























Interactive Weather Map New forecast layout! Learn more

10-Day Weather Forecast

Advertisements
Track Severe Weather on mobile